Portada
METAR-TAF:

METAR-TAF

Aeroports :

La Chaux-de-Fonds, Suïssa

latitud: 47-05-03N, longitud: 006-47-37E, altitud: 1027 m

Observació

L'informe es va fer fa 38 minuts, a les 23:20 UTC
Vent 8 kt del Oest/Sud-Oest, variant entre Sud/Sud-Oest i Oest
Temperatura -2°C
Humitat 86%
Pressió 1011 hPa
Visibilitat 10 km o més
Cel ennuvolat a una alçada de 800 ft

METAR: LSGC 262320Z AUTO 24008KT 200V260 9999 BKN008 M02/M04 Q1011

Hora: 00:58 (23:58 UTC)

Pronòstic

L'informe es va fer fa 9 hores i 33 minuts, a les 14:25 UTC
Pronòstic vàlid del 26 a les 15 UTC al 26 a les 24 UTC
Vent 10 kt del Oest
Visibilitat 10 km o més
Cel ennuvolat a una alçada de 1200 ft
xàfecs de neu
Probabilitat 30% :
Temporalment
l' 26 a les 15 UTC al 26 a les 24 UTC
Visibilitat: 0800 m
Cel ennuvolat a una alçada de 400 ft
Núvols disperses a una alçada de 700 ft, Cumulus congestus.
xàfecs de neu

TAF: LSGC 261425Z 2615/2624 27010KT 9999 -SHSN BKN012 PROB30 TEMPO 2615/2624 0800 +SHSN BKN004 SCT007TCU

Observacions i pronòstics meteorològics de més de 4000 aeroports (METAR i TAF).

Les estacions disponibles són els punts grocs i vermells al mapa.

Posi el ratolí al punt desitjat per veure el nom de l'estació.

Feu clic per veure les observacions i els pronòstics meteorològics.

Per canviar el mapa: feu clic els botons verds amb una creu de color negre per apropar; al botó verd amb un guió per allunyar la imatge; o en les fletxes verdes per a mapes adjacents.


METAR-TAF: